Time;durP1;ratioP1;P1;durP2;ratioP2;P2;SDS_P1;SDS_P2;PMS_P1;PMS_P2;Temp;Humidity;BMP_temperature;BMP_pressure;BME280_temperature;BME280_humidity;BME280_pressure;Samples;Min_cycle;Max_cycle;Signal;HPM_P1;HPM_P2
2022/12/10 00:01:16;;;;;;;109.00;36.58;;;;;;;-145.18;100.00;46720.94;5013006;28;20077;-72
2022/12/10 00:03:42;;;;;;;95.68;34.83;;;;;;;-145.18;100.00;46724.84;5013038;28;20033;-72
2022/12/10 00:06:11;;;;;;;99.80;33.03;;;;;;;-145.18;100.00;46722.91;5012419;28;20395;-72
2022/12/10 00:08:36;;;;;;;96.55;33.92;;;;;;;-145.18;100.00;46722.91;5013270;28;20103;-72
2022/12/10 00:11:04;;;;;;;93.40;33.60;;;;;;;-145.18;100.00;46724.84;5008346;28;20491;-72
2022/12/10 00:13:29;;;;;;;112.78;38.88;;;;;;;-145.18;100.00;46720.94;5013204;28;20033;-72
2022/12/10 00:15:55;;;;;;;103.47;35.03;;;;;;;-145.18;100.00;46722.91;5012718;28;20041;-72
2022/12/10 00:18:20;;;;;;;101.80;32.87;;;;;;;-145.18;100.00;46719.00;5013356;28;20553;-72
2022/12/10 00:20:45;;;;;;;116.60;33.03;;;;;;;-145.18;100.00;46726.81;5012506;28;20026;-72
2022/12/10 00:23:10;;;;;;;113.20;36.10;;;;;;;-145.18;100.00;46720.94;4995179;28;20034;-72
2022/12/10 00:25:36;;;;;;;93.43;32.50;;;;;;;-145.18;100.00;46719.00;5012562;28;20034;-72
2022/12/10 00:28:01;;;;;;;100.20;33.47;;;;;;;-145.18;100.00;46720.94;5012589;28;20391;-72
2022/12/10 00:30:26;;;;;;;96.17;33.20;;;;;;;-145.18;100.00;46720.94;5013098;28;20065;-72
2022/12/10 00:32:52;;;;;;;96.53;34.17;;;;;;;-145.18;100.00;46719.00;5012086;28;20092;-71
2022/12/10 00:35:17;;;;;;;117.27;33.07;;;;;;;-145.18;100.00;46722.91;5012706;28;20045;-72
2022/12/10 00:37:43;;;;;;;100.83;35.13;;;;;;;-145.18;100.00;46722.91;5012612;28;20079;-72
2022/12/10 00:40:10;;;;;;;124.40;35.33;;;;;;;-145.18;100.00;46720.94;5012720;28;20037;-72
2022/12/10 00:42:36;;;;;;;107.90;36.60;;;;;;;-145.18;100.00;46719.00;5011918;28;20034;-72
2022/12/10 00:45:01;;;;;;;92.67;34.67;;;;;;;-145.18;100.00;46719.00;5012672;28;20045;-72
2022/12/10 00:47:26;;;;;;;109.97;35.33;;;;;;;-145.18;100.00;46711.19;5012593;28;20042;-72
2022/12/10 00:49:52;;;;;;;100.60;34.63;;;;;;;-145.18;100.00;46720.94;5012225;28;20042;-72
2022/12/10 00:52:17;;;;;;;119.13;36.97;;;;;;;-145.18;100.00;46720.94;5012173;28;20037;-72
2022/12/10 00:54:42;;;;;;;114.30;35.40;;;;;;;-145.18;100.00;46722.91;5012197;28;20580;-72
2022/12/10 00:57:08;;;;;;;120.90;36.17;;;;;;;-145.18;100.00;46717.03;5012184;28;20545;-72
2022/12/10 00:59:33;;;;;;;115.40;37.47;;;;;;;-145.18;100.00;46717.03;4994574;28;20493;-72
2022/12/10 01:01:59;;;;;;;103.53;34.90;;;;;;;-145.18;100.00;46720.94;4994307;28;20041;-72
2022/12/10 01:04:24;;;;;;;104.07;35.70;;;;;;;-145.18;100.00;46720.94;5012421;28;20034;-72
2022/12/10 01:06:52;;;;;;;111.80;37.10;;;;;;;-145.18;100.00;46719.00;5011750;28;20058;-72
2022/12/10 01:09:21;;;;;;;113.80;37.38;;;;;;;-145.18;100.00;46719.00;5012100;28;20457;-72
2022/12/10 01:11:48;;;;;;;106.72;37.13;;;;;;;-145.18;100.00;46717.03;5011745;28;20383;-72
2022/12/10 01:14:17;;;;;;;116.63;35.92;;;;;;;-145.18;100.00;46719.00;5012050;28;20501;-72
2022/12/10 01:16:43;;;;;;;109.55;36.30;;;;;;;-145.18;100.00;46719.00;5011459;28;20556;-72
2022/12/10 01:19:09;;;;;;;98.00;35.17;;;;;;;-145.18;100.00;46719.00;5011983;28;20160;-72
2022/12/10 01:21:35;;;;;;;101.60;35.03;;;;;;;-145.18;100.00;46717.03;5011213;28;20116;-72
2022/12/10 01:24:00;;;;;;;114.10;37.00;;;;;;;-145.18;100.00;46711.19;5010521;28;20022;-72
2022/12/10 01:26:29;;;;;;;103.83;35.20;;;;;;;-145.18;100.00;46720.94;5010462;28;20069;-72
2022/12/10 01:28:55;;;;;;;117.00;39.60;;;;;;;-145.18;100.00;46719.00;5008464;28;20052;-72
2022/12/10 01:31:29;;;;;;;103.28;35.78;;;;;;;-145.18;100.00;46719.00;5010567;28;20069;-72
2022/12/10 01:33:57;;;;;;;113.43;36.67;;;;;;;-145.18;100.00;46719.00;5007774;28;20564;-72
2022/12/10 01:36:44;;;;;;;102.15;35.33;;;;;;;-145.18;100.00;46719.00;5009654;28;20049;-72
2022/12/10 01:39:13;;;;;;;118.18;36.20;;;;;;;-145.18;100.00;46717.03;5008857;28;20102;-72
2022/12/10 01:41:42;;;;;;;114.72;37.30;;;;;;;-145.18;100.00;46717.03;5010060;28;20521;-72
2022/12/10 01:44:07;;;;;;;118.25;36.30;;;;;;;-145.18;100.00;46717.03;5008429;28;20492;-72
2022/12/10 01:46:35;;;;;;;117.83;38.33;;;;;;;-145.18;100.00;46720.94;5010064;28;20029;-72
2022/12/10 01:49:04;;;;;;;121.25;37.20;;;;;;;-145.18;100.00;46717.03;5009891;28;20029;-72
2022/12/10 01:51:32;;;;;;;112.55;37.38;;;;;;;-145.18;100.00;46715.09;5010166;28;20606;-72
2022/12/10 01:53:58;;;;;;;115.22;37.42;;;;;;;-145.18;100.00;46719.00;5010111;28;20038;-72
2022/12/10 01:56:24;;;;;;;119.17;38.57;;;;;;;-145.18;100.00;46717.03;5010083;28;20048;-72
2022/12/10 01:58:52;;;;;;;124.82;39.65;;;;;;;-145.18;100.00;46709.22;5010110;28;20037;-72
2022/12/10 02:01:31;;;;;;;112.47;35.70;;;;;;;-145.18;100.00;46717.03;5009319;28;20091;-72
2022/12/10 02:04:28;;;;;;;126.25;40.60;;;;;;;-145.18;100.00;46719.00;5008987;28;20517;-72
2022/12/10 02:06:53;;;;;;;130.82;40.08;;;;;;;-145.18;100.00;46719.00;5009233;28;20112;-72
2022/12/10 02:09:30;;;;;;;130.30;40.03;;;;;;;-145.18;100.00;46719.00;5010043;28;20505;-72
2022/12/10 02:12:11;;;;;;;142.15;42.70;;;;;;;-145.18;100.00;46717.03;4991624;28;20493;-72
2022/12/10 02:15:03;;;;;;;128.98;41.13;;;;;;;-145.18;100.00;46719.00;5007613;28;20168;-72
2022/12/10 02:17:36;;;;;;;145.23;40.00;;;;;;;-145.18;100.00;46717.03;5009631;28;20084;-72
2022/12/10 02:20:12;;;;;;;137.10;43.30;;;;;;;-145.18;100.00;46713.13;5009744;28;20067;-72
2022/12/10 02:22:48;;;;;;;147.88;44.10;;;;;;;-145.18;100.00;46715.09;5009238;28;20065;-72
2022/12/10 02:25:15;;;;;;;;;;;;;;;-145.18;100.00;46719.00;5009857;28;20029;-72
2022/12/10 02:27:56;;;;;;;148.98;43.08;;;;;;;-145.18;100.00;46711.19;5009418;28;19925;-72
2022/12/10 02:30:22;;;;;;;160.20;46.83;;;;;;;-145.18;100.00;46719.00;5009788;28;20034;-72
2022/12/10 02:32:50;;;;;;;151.47;44.77;;;;;;;-145.18;100.00;46711.19;5009203;28;20483;-72
2022/12/10 02:35:27;;;;;;;161.88;45.97;;;;;;;-145.18;100.00;46717.03;5009337;28;20033;-72
2022/12/10 02:37:59;;;;;;;174.88;45.88;;;;;;;-145.18;100.00;46717.03;5009205;28;20061;-72
2022/12/10 02:40:34;;;;;;;221.02;48.67;;;;;;;-145.18;100.00;46715.09;5008075;28;20018;-72
2022/12/10 02:43:00;;;;;;;181.02;48.25;;;;;;;-145.18;100.00;46717.03;5009062;28;20041;-72
2022/12/10 02:45:28;;;;;;;170.37;45.83;;;;;;;-145.18;100.00;46717.03;5009487;28;20025;-73
2022/12/10 02:47:57;;;;;;;219.43;45.30;;;;;;;-145.18;100.00;46715.09;5008875;28;20022;-72
2022/12/10 02:50:23;;;;;;;153.82;41.75;;;;;;;-145.18;100.00;46719.00;5009120;28;20038;-72
2022/12/10 02:52:49;;;;;;;155.77;42.88;;;;;;;-145.18;100.00;46720.94;5006577;28;20029;-72
2022/12/10 02:55:14;;;;;;;203.30;43.80;;;;;;;-145.18;100.00;46717.03;5009298;28;20045;-71
2022/12/10 02:58:03;;;;;;;246.47;49.80;;;;;;;-145.18;100.00;46719.00;5008730;28;20113;-73
2022/12/10 03:03:13;;;;;;;195.98;41.45;;;;;;;-145.18;100.00;46717.03;5205531;22;20050;-74
2022/12/10 03:05:54;;;;;;;190.73;43.85;;;;;;;-145.18;100.00;46715.09;5022430;28;20096;-72
2022/12/10 03:08:40;;;;;;;223.43;44.10;;;;;;;-145.18;100.00;46715.09;5010183;28;20038;-72
2022/12/10 03:11:15;;;;;;;190.25;43.05;;;;;;;-145.18;100.00;46719.00;4992681;28;20500;-72
2022/12/10 03:13:53;;;;;;;245.88;42.38;;;;;;;-145.18;100.00;46711.19;5016598;28;20037;-72
2022/12/10 03:16:20;;;;;;;199.15;39.63;;;;;;;-145.18;100.00;46717.03;5030238;28;20037;-72
2022/12/10 03:18:49;;;;;;;182.23;38.63;;;;;;;-145.18;100.00;46711.19;5029813;28;20107;-72
2022/12/10 03:21:16;;;;;;;248.95;42.17;;;;;;;-145.18;100.00;46713.13;5030054;28;20025;-72
2022/12/10 03:23:45;;;;;;;178.68;36.20;;;;;;;-145.18;100.00;46713.13;5029328;28;20036;-72
2022/12/10 03:26:11;;;;;;;171.77;42.30;;;;;;;-145.18;100.00;46711.19;5029747;28;20623;-72
2022/12/10 03:28:46;;;;;;;186.23;41.50;;;;;;;-145.18;100.00;46717.03;5029368;28;20041;-72
2022/12/10 03:31:14;;;;;;;300.42;46.05;;;;;;;-145.18;100.00;46715.09;5029716;28;20084;-72
2022/12/10 03:33:40;;;;;;;240.52;42.83;;;;;;;-145.18;100.00;46699.47;5029529;28;20038;-72
2022/12/10 03:36:07;;;;;;;161.13;42.55;;;;;;;-145.18;100.00;46719.00;5029763;28;20053;-72
2022/12/10 03:38:34;;;;;;;232.57;41.35;;;;;;;-145.18;100.00;46715.09;5029832;28;20452;-72
2022/12/10 03:40:59;;;;;;;301.27;49.33;;;;;;;-145.18;100.00;46713.13;5029500;28;20508;-72
2022/12/10 03:43:25;;;;;;;205.07;45.10;;;;;;;-145.18;100.00;46711.19;5029397;28;20038;-72
2022/12/10 03:45:50;;;;;;;184.67;45.67;;;;;;;-145.18;100.00;46717.03;5029834;28;20393;-72
2022/12/10 03:48:16;;;;;;;199.23;44.20;;;;;;;-145.18;100.00;46709.22;5029434;28;20531;-72
2022/12/10 03:50:41;;;;;;;284.83;46.53;;;;;;;-145.18;100.00;46711.19;5029538;28;20041;-72
2022/12/10 03:53:06;;;;;;;224.97;46.97;;;;;;;-145.18;100.00;46715.09;5028946;28;20040;-72
2022/12/10 03:55:32;;;;;;;215.53;43.67;;;;;;;-145.18;100.00;46715.09;5029671;28;20041;-72
2022/12/10 03:57:58;;;;;;;263.37;49.93;;;;;;;-145.18;100.00;46709.22;5029496;28;20087;-72
2022/12/10 04:00:23;;;;;;;185.53;46.47;;;;;;;-145.18;100.00;46713.13;5029889;28;20935;-72
2022/12/10 04:02:49;;;;;;;234.37;45.10;;;;;;;-145.18;100.00;46693.59;5016291;28;20129;-72
2022/12/10 04:05:14;;;;;;;208.73;46.30;;;;;;;-145.18;100.00;46705.31;5013009;28;20475;-72
2022/12/10 04:07:39;;;;;;;227.03;46.00;;;;;;;-145.18;100.00;46709.22;5013349;28;20049;-72
2022/12/10 04:10:05;;;;;;;211.73;45.63;;;;;;;-145.18;100.00;46707.28;5013369;28;20462;-72
2022/12/10 04:12:30;;;;;;;196.07;49.07;;;;;;;-145.18;100.00;46713.13;5013103;28;20042;-72
2022/12/10 04:17:39;;;;;;;186.75;45.75;;;;;;;-145.18;100.00;46709.22;5013358;28;20068;-72
2022/12/10 04:26:51;;;;;;;187.33;48.43;;;;;;;-145.18;100.00;46707.28;5013127;28;20034;-72
2022/12/10 04:28:19;;;;;;;203.93;46.25;;;;;;;-145.18;100.00;46705.31;4993863;28;20113;-72
2022/12/10 04:30:44;;;;;;;351.13;52.53;;;;;;;-145.18;100.00;46711.19;4993647;28;20121;-72
2022/12/10 04:33:09;;;;;;;230.80;50.23;;;;;;;-145.18;100.00;46705.31;5009079;28;20053;-72
2022/12/10 04:35:35;;;;;;;234.17;47.63;;;;;;;-145.18;100.00;46715.09;5012921;28;20038;-72
2022/12/10 04:38:00;;;;;;;245.27;45.17;;;;;;;-145.18;100.00;46711.19;4994938;28;20041;-72
2022/12/10 04:40:25;;;;;;;256.27;46.97;;;;;;;-145.18;100.00;46705.31;5013079;28;20065;-72
2022/12/10 04:42:51;;;;;;;254.87;49.67;;;;;;;-145.18;100.00;46709.22;5012614;28;20058;-72
2022/12/10 04:45:16;;;;;;;212.67;46.03;;;;;;;-145.18;100.00;46709.22;4995062;28;20453;-72
2022/12/10 04:47:41;;;;;;;286.40;49.63;;;;;;;-145.18;100.00;46705.31;5012551;28;20434;-72
2022/12/10 04:50:07;;;;;;;254.97;47.70;;;;;;;-145.18;100.00;46705.31;5012737;28;20615;-72
2022/12/10 04:52:32;;;;;;;457.27;54.63;;;;;;;-145.18;100.00;46711.19;5012574;28;20022;-72
2022/12/10 04:54:58;;;;;;;223.03;43.93;;;;;;;-145.18;100.00;46707.28;5012338;28;20407;-72
2022/12/10 04:57:23;;;;;;;327.57;52.20;;;;;;;-145.18;100.00;46711.19;5012591;28;20105;-72
2022/12/10 04:59:49;;;;;;;292.93;47.90;;;;;;;-145.18;100.00;46715.09;5012488;28;20386;-72
2022/12/10 05:02:14;;;;;;;299.40;48.73;;;;;;;-145.18;100.00;46703.38;5012095;28;20061;-72
2022/12/10 05:04:39;;;;;;;251.27;46.87;;;;;;;-145.18;100.00;46705.31;5012225;28;20069;-72
2022/12/10 05:07:05;;;;;;;242.13;45.10;;;;;;;-145.18;100.00;46703.38;5012419;28;20468;-72
2022/12/10 05:09:30;;;;;;;256.73;44.30;;;;;;;-145.18;100.00;46697.50;4994560;28;20516;-72
2022/12/10 05:11:55;;;;;;;267.33;44.43;;;;;;;-145.18;100.00;46705.31;5011906;28;20034;-72
2022/12/10 05:14:21;;;;;;;310.10;49.63;;;;;;;-145.18;100.00;46695.56;5010972;28;20034;-72
2022/12/10 05:16:49;;;;;;;280.87;47.70;;;;;;;-145.18;100.00;46711.19;4994967;28;20033;-72
2022/12/10 05:19:14;;;;;;;231.38;48.10;;;;;;;-145.18;100.00;46711.19;5011888;28;20029;-72
2022/12/10 05:24:24;;;;;;;316.77;51.08;;;;;;;-145.18;100.00;46705.31;5012301;28;20041;-72
2022/12/10 05:26:51;;;;;;;264.95;48.83;;;;;;;-145.18;100.00;46705.31;5012168;28;20136;-72
2022/12/10 05:29:17;;;;;;;242.23;48.60;;;;;;;-145.18;100.00;46699.47;5011555;28;20026;-72
2022/12/10 05:31:42;;;;;;;245.10;48.25;;;;;;;-145.18;100.00;46697.50;5011006;28;20045;-72
2022/12/10 05:34:10;;;;;;;318.90;48.63;;;;;;;-145.18;100.00;46709.22;5008401;28;20402;-72
2022/12/10 05:36:35;;;;;;;297.60;50.17;;;;;;;-145.18;100.00;46697.50;5002693;28;20053;-71
2022/12/10 05:39:03;;;;;;;399.23;52.63;;;;;;;-145.18;100.00;46701.41;5003872;28;20070;-71
2022/12/10 05:41:31;;;;;;;351.17;48.55;;;;;;;-145.18;100.00;46699.47;5001584;28;20034;-71
2022/12/10 05:43:58;;;;;;;246.15;44.20;;;;;;;-145.18;100.00;46703.38;5000911;28;20084;-71
2022/12/10 05:46:27;;;;;;;253.48;45.03;;;;;;;-145.18;100.00;46703.38;5001872;28;20502;-71
2022/12/10 05:48:53;;;;;;;199.10;44.63;;;;;;;-145.18;100.00;46691.66;5001823;28;20104;-71
2022/12/10 05:51:22;;;;;;;312.47;48.53;;;;;;;-145.18;100.00;46703.38;5003849;28;20609;-72
2022/12/10 05:53:48;;;;;;;328.00;47.97;;;;;;;-145.18;100.00;46709.22;5006385;28;20026;-72
2022/12/10 05:56:20;;;;;;;227.03;45.53;;;;;;;-145.18;100.00;46691.66;5006524;28;20120;-72
2022/12/10 05:58:47;;;;;;;345.08;48.38;;;;;;;-145.18;100.00;46695.56;5004995;28;20454;-72
2022/12/10 06:01:16;;;;;;;195.25;42.47;;;;;;;-145.18;100.00;46693.59;5000311;28;20106;-72
2022/12/10 06:03:42;;;;;;;227.23;44.78;;;;;;;-145.18;100.00;46699.47;5010626;28;20061;-71
2022/12/10 06:06:09;;;;;;;257.57;45.67;;;;;;;-145.18;100.00;46713.13;5011015;28;20084;-72
2022/12/10 06:08:35;;;;;;;268.10;43.05;;;;;;;-145.18;100.00;46699.47;5010992;28;20101;-72
2022/12/10 06:11:02;;;;;;;195.80;43.88;;;;;;;-145.18;100.00;46695.56;5011069;28;20740;-72
2022/12/10 06:13:28;;;;;;;316.90;47.38;;;;;;;-145.18;100.00;46695.56;5005906;28;20045;-71
2022/12/10 06:15:53;;;;;;;221.63;45.10;;;;;;;-145.18;100.00;46701.41;5010670;28;20038;-72
2022/12/10 06:18:18;;;;;;;238.47;45.13;;;;;;;-145.18;100.00;46695.56;5008287;28;20117;-72
2022/12/10 06:20:44;;;;;;;281.00;44.20;;;;;;;-145.18;100.00;46703.38;4991511;28;20034;-72
2022/12/10 06:23:09;;;;;;;220.47;44.10;;;;;;;-145.18;100.00;46697.50;5003472;28;20077;-72
2022/12/10 06:25:37;;;;;;;217.53;44.70;;;;;;;-145.18;100.00;46709.22;4992975;28;20044;-72
2022/12/10 06:28:03;;;;;;;231.68;42.08;;;;;;;-145.18;100.00;46695.56;5010521;28;20026;-72
2022/12/10 06:30:28;;;;;;;233.70;43.07;;;;;;;-145.18;100.00;46691.66;5010736;28;20065;-71
2022/12/10 06:32:54;;;;;;;321.17;45.00;;;;;;;-145.18;100.00;46703.38;4997911;28;20053;-72
2022/12/10 06:35:19;;;;;;;226.17;40.77;;;;;;;-145.18;100.00;46691.66;5007520;28;20029;-72
2022/12/10 06:37:45;;;;;;;213.53;40.83;;;;;;;-145.18;100.00;46697.50;5008799;28;20048;-72
2022/12/10 06:40:11;;;;;;;169.33;40.03;;;;;;;-145.18;100.00;46697.50;4991174;28;20088;-72
2022/12/10 06:42:36;;;;;;;244.67;40.00;;;;;;;-145.18;100.00;46697.50;5008905;28;20042;-72
2022/12/10 06:45:01;;;;;;;183.50;35.50;;;;;;;-145.18;100.00;46693.59;4990619;28;20033;-72
2022/12/10 06:47:27;;;;;;;295.50;39.07;;;;;;;-145.18;100.00;46699.47;5009445;28;20034;-72
2022/12/10 06:49:52;;;;;;;174.63;37.23;;;;;;;-145.18;100.00;46693.59;4997676;28;20477;-72
2022/12/10 06:52:17;;;;;;;172.00;35.03;;;;;;;-145.18;100.00;46705.31;4996818;28;20076;-72
2022/12/10 06:54:43;;;;;;;148.67;36.17;;;;;;;-145.18;100.00;46699.47;4998219;28;20088;-72
2022/12/10 06:57:08;;;;;;;201.40;36.90;;;;;;;-145.18;100.00;46693.59;5008853;28;20132;-72
2022/12/10 06:59:34;;;;;;;202.50;37.10;;;;;;;-145.18;100.00;46701.41;5003781;28;20052;-72
2022/12/10 07:01:59;;;;;;;206.30;39.33;;;;;;;-145.18;100.00;46703.38;5003753;28;20394;-72
2022/12/10 07:04:25;;;;;;;192.73;37.70;;;;;;;-145.18;100.00;46699.47;5006387;28;20034;-72
2022/12/10 07:06:50;;;;;;;161.70;36.17;;;;;;;-145.18;100.00;46695.56;5008264;28;20530;-72
2022/12/10 07:09:16;;;;;;;173.80;37.67;;;;;;;-145.18;100.00;46693.59;4975765;28;20038;-72
2022/12/10 07:11:42;;;;;;;276.37;42.87;;;;;;;-145.18;100.00;46699.47;5009537;28;20030;-72
2022/12/10 07:14:10;;;;;;;242.52;38.83;;;;;;;-145.18;100.00;46693.59;5004511;28;20104;-72
2022/12/10 07:16:35;;;;;;;186.85;38.05;;;;;;;-145.18;100.00;46699.47;5009213;28;20482;-72
2022/12/10 07:19:02;;;;;;;174.13;36.57;;;;;;;-145.18;100.00;46709.22;5009542;28;20034;-72
2022/12/10 07:21:33;;;;;;;184.77;35.03;;;;;;;-145.18;100.00;46693.59;5006427;28;20149;-72
2022/12/10 07:24:02;;;;;;;177.75;38.55;;;;;;;-145.18;100.00;46697.50;5009252;28;20068;-71
2022/12/10 07:26:29;;;;;;;255.40;40.08;;;;;;;-145.18;100.00;46695.56;4978559;28;20035;-72
2022/12/10 07:28:55;;;;;;;184.80;35.92;;;;;;;-145.18;100.00;46697.50;4989110;28;20030;-72
2022/12/10 07:31:21;;;;;;;235.70;39.10;;;;;;;-145.18;100.00;46699.47;4989252;28;20053;-72
2022/12/10 07:33:48;;;;;;;279.40;39.05;;;;;;;-145.18;100.00;46699.47;5007702;28;20038;-72
2022/12/10 07:36:14;;;;;;;158.25;36.90;;;;;;;-145.18;100.00;46701.41;5009004;28;20077;-72
2022/12/10 07:38:40;;;;;;;171.50;33.63;;;;;;;-145.18;100.00;46697.50;5012087;28;20034;-72
2022/12/10 07:41:08;;;;;;;216.52;34.20;;;;;;;-145.18;100.00;46701.41;5012819;28;20103;-72
2022/12/10 07:43:39;;;;;;;205.10;35.40;;;;;;;-145.18;100.00;46695.56;5013348;28;20405;-72
2022/12/10 07:46:06;;;;;;;190.10;35.22;;;;;;;-145.18;100.00;46703.38;5013498;28;20053;-72
2022/12/10 07:48:33;;;;;;;175.25;34.95;;;;;;;-145.18;100.00;46699.47;5013451;28;20026;-72
2022/12/10 07:50:59;;;;;;;259.85;36.08;;;;;;;-145.18;100.00;46707.28;5013672;28;20398;-72
2022/12/10 07:53:24;;;;;;;301.97;39.33;;;;;;;-145.18;100.00;46695.56;5013229;28;20041;-72
2022/12/10 07:55:50;;;;;;;274.50;42.53;;;;;;;-145.18;100.00;46705.31;5013566;28;20092;-72
2022/12/10 07:58:15;;;;;;;269.70;39.83;;;;;;;-145.18;100.00;46699.47;5013192;28;20033;-72
2022/12/10 08:00:41;;;;;;;199.90;39.73;;;;;;;-145.18;100.00;46699.47;5013156;28;20038;-72
2022/12/10 08:03:06;;;;;;;241.93;42.53;;;;;;;-145.18;100.00;46697.50;5012483;28;20058;-72
2022/12/10 08:05:31;;;;;;;212.93;38.33;;;;;;;-145.18;100.00;46697.50;5013576;28;20114;-72
2022/12/10 08:07:57;;;;;;;179.07;37.77;;;;;;;-145.18;100.00;46695.56;5012384;28;20022;-72
2022/12/10 08:10:22;;;;;;;170.37;35.70;;;;;;;-145.18;100.00;46699.47;5013366;28;20112;-72
2022/12/10 08:12:47;;;;;;;225.23;35.93;;;;;;;-145.18;100.00;46695.56;5012997;28;20085;-72
2022/12/10 08:15:13;;;;;;;175.23;36.17;;;;;;;-145.18;100.00;46695.56;5012830;28;20034;-72
2022/12/10 08:17:38;;;;;;;247.67;39.43;;;;;;;-145.18;100.00;46687.75;5013481;28;20040;-72
2022/12/10 08:20:04;;;;;;;196.40;37.73;;;;;;;-145.18;100.00;46703.38;5012754;28;20096;-72
2022/12/10 08:22:29;;;;;;;198.97;38.77;;;;;;;-145.18;100.00;46695.56;5012789;28;20029;-72
2022/12/10 08:24:54;;;;;;;178.70;36.00;;;;;;;-145.18;100.00;46705.31;5012509;28;20061;-72
2022/12/10 08:27:20;;;;;;;195.53;35.53;;;;;;;-145.18;100.00;46691.66;5012892;28;20038;-72
2022/12/10 08:29:45;;;;;;;207.73;38.33;;;;;;;-145.18;100.00;46693.59;5012818;28;20045;-72
2022/12/10 08:32:10;;;;;;;184.97;34.43;;;;;;;-145.18;100.00;46695.56;5010111;28;20522;-71
2022/12/10 08:34:36;;;;;;;181.20;36.33;;;;;;;-145.18;100.00;46701.41;5012149;28;20104;-72
2022/12/10 08:37:01;;;;;;;160.87;34.97;;;;;;;-145.18;100.00;46701.41;5012544;28;20171;-71
2022/12/10 08:39:26;;;;;;;189.93;34.87;;;;;;;-145.18;100.00;46703.38;4998061;28;20084;-72
2022/12/10 08:41:52;;;;;;;190.73;36.20;;;;;;;-145.18;100.00;46707.28;5012995;28;20030;-72
2022/12/10 08:44:17;;;;;;;154.10;32.73;;;;;;;-145.18;100.00;46707.28;5012379;28;20034;-72
2022/12/10 08:46:43;;;;;;;169.13;35.37;;;;;;;-145.18;100.00;46705.31;5008423;28;20112;-71
2022/12/10 08:49:08;;;;;;;151.73;33.13;;;;;;;-145.18;100.00;46703.38;5011927;28;20053;-72
2022/12/10 08:51:34;;;;;;;175.07;33.57;;;;;;;-145.18;100.00;46699.47;5012388;28;20030;-72
2022/12/10 08:53:59;;;;;;;202.43;34.10;;;;;;;-145.18;100.00;46705.31;5012170;28;20042;-72
2022/12/10 08:56:24;;;;;;;172.43;34.90;;;;;;;-145.18;100.00;46701.41;5012687;28;20414;-71
2022/12/10 08:58:50;;;;;;;229.57;36.40;;;;;;;-145.18;100.00;46703.38;5010640;28;20235;-72
2022/12/10 09:01:18;;;;;;;164.47;34.03;;;;;;;-145.18;100.00;46703.38;5009487;28;20073;-72
2022/12/10 09:03:44;;;;;;;199.95;35.55;;;;;;;-145.18;100.00;46699.47;5011365;28;20454;-72
2022/12/10 09:06:12;;;;;;;219.00;36.08;;;;;;;-145.18;100.00;46699.47;5011104;28;20038;-72
2022/12/10 09:08:38;;;;;;;217.82;34.42;;;;;;;-145.18;100.00;46697.50;5010288;28;20494;-72
2022/12/10 09:11:09;;;;;;;220.47;36.23;;;;;;;-145.18;100.00;46701.41;4993223;28;20092;-72
2022/12/10 09:13:35;;;;;;;213.50;36.13;;;;;;;-145.18;100.00;46703.38;4993464;28;20461;-72
2022/12/10 09:16:00;;;;;;;162.20;34.50;;;;;;;-145.18;100.00;46699.47;5011032;28;20123;-72
2022/12/10 09:18:26;;;;;;;194.07;36.87;;;;;;;-145.18;100.00;46701.41;5010629;28;20038;-72
2022/12/10 09:20:51;;;;;;;185.97;33.53;;;;;;;-145.18;100.00;46693.59;5010514;28;20042;-72
2022/12/10 09:23:16;;;;;;;172.57;33.13;;;;;;;-145.18;100.00;46699.47;5010450;28;20044;-72
2022/12/10 09:25:42;;;;;;;203.73;34.40;;;;;;;-145.18;100.00;46699.47;5010944;28;20091;-72
2022/12/10 09:28:07;;;;;;;189.17;35.93;;;;;;;-145.18;100.00;46695.56;5007636;28;20042;-72
2022/12/10 09:30:33;;;;;;;178.90;34.43;;;;;;;-145.18;100.00;46695.56;5010324;28;20121;-72
2022/12/10 09:32:58;;;;;;;213.33;33.57;;;;;;;-145.18;100.00;46693.59;4992979;28;20042;-72
2022/12/10 09:35:23;;;;;;;171.07;33.20;;;;;;;-145.18;100.00;46697.50;5010867;28;20026;-72
2022/12/10 09:37:49;;;;;;;173.20;35.47;;;;;;;-145.18;100.00;46695.56;5010440;28;20532;-72
2022/12/10 09:40:26;;;;;;;147.60;33.63;;;;;;;-145.18;100.00;46691.66;5010057;28;20037;-72
2022/12/10 09:43:03;;;;;;;172.13;38.33;;;;;;;-145.18;100.00;46689.69;4995451;28;20136;-73
2022/12/10 09:45:51;;;;;;;161.43;32.05;;;;;;;-145.18;100.00;46693.59;4991058;28;20022;-72
2022/12/10 09:48:36;;;;;;;159.98;34.15;;;;;;;-145.18;100.00;46693.59;5006968;28;20183;-72
2022/12/10 09:51:14;;;;;;;158.20;32.13;;;;;;;-145.18;100.00;46691.66;5007299;28;20027;-72
2022/12/10 09:53:40;;;;;;;159.10;31.80;;;;;;;-145.18;100.00;46689.69;5007501;28;20067;-73
2022/12/10 09:56:11;;;;;;;183.00;31.37;;;;;;;-145.18;100.00;46693.59;5010077;28;20038;-73
2022/12/10 09:58:37;;;;;;;149.75;29.42;;;;;;;-145.18;100.00;46695.56;5003835;28;20026;-73
2022/12/10 10:01:05;;;;;;;161.20;30.47;;;;;;;-145.18;100.00;46693.59;4997394;28;20041;-73
2022/12/10 10:03:38;;;;;;;145.87;29.00;;;;;;;-145.18;100.00;46693.59;4966163;28;1175736;-73
2022/12/10 10:06:05;;;;;;;146.25;29.70;;;;;;;-145.18;100.00;46693.59;5011255;28;20048;-73
2022/12/10 10:08:38;;;;;;;144.02;31.40;;;;;;;-145.18;100.00;46689.69;5010633;28;20673;-73
2022/12/10 10:11:04;;;;;;;152.73;29.92;;;;;;;-145.18;100.00;46691.66;4997592;28;20057;-72
2022/12/10 10:13:40;;;;;;;148.48;30.80;;;;;;;-145.18;100.00;46693.59;4991567;28;20046;-73
2022/12/10 10:16:14;;;;;;;145.75;28.90;;;;;;;-145.18;100.00;46691.66;5009573;28;20041;-73
2022/12/10 10:18:43;;;;;;;125.80;28.33;;;;;;;-145.18;100.00;46693.59;5009953;28;20044;-73
2022/12/10 10:21:47;;;;;;;136.52;28.48;;;;;;;-145.18;100.00;46691.66;5010936;28;20532;-73
2022/12/10 10:24:16;;;;;;;157.02;31.70;;;;;;;-145.18;100.00;46693.59;5010533;28;20040;-73
2022/12/10 10:26:42;;;;;;;127.20;30.60;;;;;;;-145.18;100.00;46699.47;5010764;28;20034;-73
2022/12/10 10:29:10;;;;;;;137.20;32.73;;;;;;;-145.18;100.00;46691.66;5010241;28;20040;-73
2022/12/10 10:31:39;;;;;;;138.85;31.58;;;;;;;-145.18;100.00;46695.56;5011039;28;20037;-73
2022/12/10 10:34:13;;;;;;;141.70;32.33;;;;;;;-145.18;100.00;46695.56;5010583;28;20030;-72
2022/12/10 10:36:39;;;;;;;122.25;29.92;;;;;;;-145.18;100.00;46695.56;5010853;28;20026;-72
2022/12/10 10:39:16;;;;;;;134.98;30.65;;;;;;;-145.18;100.00;46691.66;5010069;28;20676;-72
2022/12/10 10:41:42;;;;;;;124.70;28.95;;;;;;;-145.18;100.00;46689.69;4992735;28;20175;-72
2022/12/10 10:44:18;;;;;;;141.90;29.17;;;;;;;-145.18;100.00;46693.59;5010275;28;20041;-72
2022/12/10 10:46:46;;;;;;;205.60;31.40;;;;;;;-145.18;100.00;46697.50;5010863;28;20412;-72
2022/12/10 10:49:33;;;;;;;137.40;28.05;;;;;;;-145.18;100.00;46693.59;5010130;28;20041;-72
2022/12/10 10:52:04;;;;;;;126.80;28.42;;;;;;;-145.18;100.00;46697.50;5009353;28;20049;-72
2022/12/10 10:54:41;;;;;;;135.35;27.20;;;;;;;-145.18;100.00;46693.59;5010494;28;20449;-72
2022/12/10 10:57:27;;;;;;;115.05;27.98;;;;;;;-145.18;100.00;46697.50;5010387;28;20041;-73
2022/12/10 10:59:53;;;;;;;;;;;;;;;-145.18;100.00;46699.47;5007258;28;20069;-72
2022/12/10 11:02:24;;;;;;;121.32;29.30;;;;;;;-145.18;100.00;46695.56;5009981;28;19917;-72
2022/12/10 11:04:52;;;;;;;133.20;29.38;;;;;;;-145.18;100.00;46697.50;5009350;28;20034;-73